createdAt,value
2023-02-11T00:00:41.566Z,84.26
2023-02-11T00:03:08.219Z,84.51
2023-02-11T00:05:35.358Z,84.47
2023-02-11T00:08:01.873Z,84.34
2023-02-11T00:10:28.418Z,84.26
2023-02-11T00:12:55.820Z,84.48
2023-02-11T00:15:22.424Z,83.87
2023-02-11T00:17:48.926Z,84.01
2023-02-11T00:20:17.810Z,83.97
2023-02-11T00:22:44.514Z,83.61
2023-02-11T00:25:10.990Z,83.87
2023-02-11T00:27:37.841Z,83.37
2023-02-11T00:30:06.445Z,83.74
2023-02-11T00:32:33.362Z,83.70
2023-02-11T00:35:00.478Z,83.89
2023-02-11T00:37:27.296Z,83.86
2023-02-11T00:39:53.889Z,84.06
2023-02-11T00:42:20.514Z,83.88
2023-02-11T00:44:49.542Z,83.89
2023-02-11T00:47:16.060Z,83.67
2023-02-11T00:49:42.566Z,83.79
2023-02-11T00:52:09.058Z,83.48
2023-02-11T00:54:35.607Z,83.53
2023-02-11T00:57:02.162Z,83.82
2023-02-11T00:59:28.758Z,84.02
2023-02-11T01:01:55.623Z,83.73
2023-02-11T01:04:22.263Z,83.41
2023-02-11T01:06:48.772Z,83.57
2023-02-11T01:09:15.283Z,83.62
2023-02-11T01:11:42.033Z,83.97
2023-02-11T01:14:09.142Z,83.40
2023-02-11T01:16:35.705Z,83.48
2023-02-11T01:19:02.467Z,83.83
2023-02-11T01:21:28.969Z,83.68
2023-02-11T01:23:55.569Z,83.88
2023-02-11T01:26:22.154Z,83.97
2023-02-11T01:28:48.674Z,83.70
2023-02-11T01:31:15.416Z,83.67
2023-02-11T01:33:42.300Z,83.71
2023-02-11T01:36:12.074Z,83.78
2023-02-11T01:38:41.467Z,83.84
2023-02-11T01:41:12.155Z,83.78
2023-02-11T01:43:42.497Z,83.58
2023-02-11T01:46:31.194Z,83.26
2023-02-11T01:49:11.301Z,83.67
2023-02-11T01:51:43.994Z,83.51
2023-02-11T01:54:33.513Z,83.43
2023-02-11T01:57:21.027Z,83.69
2023-02-11T02:00:08.857Z,83.70
2023-02-11T02:02:50.370Z,84.03
2023-02-11T02:05:29.188Z,83.53
2023-02-11T02:08:18.998Z,83.57
2023-02-11T02:10:53.980Z,83.73
2023-02-11T02:13:20.666Z,84.04
2023-02-11T02:15:59.351Z,83.83
2023-02-11T02:18:41.027Z,83.98
2023-02-11T02:21:13.636Z,84.16
2023-02-11T02:24:09.516Z,84.48
2023-02-11T02:26:38.986Z,84.11
2023-02-11T02:29:28.436Z,83.96
2023-02-11T02:32:31.972Z,83.85
2023-02-11T02:35:03.008Z,83.49
2023-02-11T02:38:08.694Z,83.78
2023-02-11T02:40:44.060Z,83.95
2023-02-11T02:43:12.114Z,83.67
2023-02-11T02:45:38.685Z,83.91
2023-02-11T02:48:05.356Z,83.66
2023-02-11T02:50:37.067Z,84.23
2023-02-11T02:53:37.383Z,84.29
2023-02-11T02:56:17.341Z,84.01
2023-02-11T02:58:58.954Z,84.38
2023-02-11T03:01:57.543Z,84.30
2023-02-11T03:04:50.430Z,84.90
2023-02-11T03:07:52.566Z,84.87
2023-02-11T03:10:25.205Z,84.65
2023-02-11T03:12:54.506Z,84.73
2023-02-11T03:15:23.470Z,84.75
2023-02-11T03:17:54.160Z,84.74
2023-02-11T03:20:23.029Z,84.53
2023-02-11T03:23:02.310Z,84.67
2023-02-11T03:25:34.091Z,84.94
2023-02-11T03:28:13.589Z,84.44
2023-02-11T03:30:56.311Z,84.75
2023-02-11T03:33:29.229Z,84.76
2023-02-11T03:36:02.793Z,84.44
2023-02-11T03:38:37.922Z,84.82
2023-02-11T03:41:08.113Z,84.91
2023-02-11T03:43:42.291Z,85.01
2023-02-11T03:46:10.874Z,85.00
2023-02-11T03:49:02.104Z,85.17
2023-02-11T03:51:31.421Z,85.15
2023-02-11T03:54:02.053Z,85.02
2023-02-11T03:56:33.055Z,84.89
2023-02-11T03:58:59.733Z,84.62
2023-02-11T04:01:26.679Z,85.16
2023-02-11T04:03:53.227Z,85.82
2023-02-11T04:06:19.721Z,85.99
2023-02-11T04:08:46.262Z,86.01
2023-02-11T04:11:12.971Z,86.21
2023-02-11T04:13:39.471Z,86.18
2023-02-11T04:16:06.211Z,86.54
2023-02-11T04:18:32.872Z,86.33
2023-02-11T04:20:59.322Z,86.41
2023-02-11T04:23:26.081Z,86.44
2023-02-11T04:25:52.790Z,86.72
2023-02-11T04:28:19.453Z,86.82
2023-02-11T04:30:46.056Z,86.61
2023-02-11T04:33:12.597Z,86.59
2023-02-11T04:35:39.241Z,86.31
2023-02-11T04:38:05.749Z,86.33
2023-02-11T04:40:34.839Z,86.60
2023-02-11T04:43:01.358Z,86.84
2023-02-11T04:45:27.849Z,86.85
2023-02-11T04:47:54.346Z,87.14
2023-02-11T04:50:20.936Z,87.00
2023-02-11T04:52:47.696Z,86.64
2023-02-11T04:55:14.258Z,87.07
2023-02-11T04:57:40.793Z,87.92
2023-02-11T05:00:08.323Z,88.05
2023-02-11T05:02:34.791Z,88.50
2023-02-11T05:05:01.655Z,88.88
2023-02-11T05:07:30.845Z,89.33
2023-02-11T05:09:57.359Z,89.63
2023-02-11T05:12:23.988Z,89.50
2023-02-11T05:14:50.483Z,89.89
2023-02-11T05:17:17.132Z,89.93
2023-02-11T05:19:44.075Z,89.89
2023-02-11T05:22:10.569Z,90.33
2023-02-11T05:24:37.096Z,90.75
2023-02-11T05:27:03.802Z,90.55
2023-02-11T05:29:30.382Z,90.78
2023-02-11T05:32:00.222Z,90.68
2023-02-11T05:34:26.868Z,90.83
2023-02-11T05:36:53.711Z,91.01
2023-02-11T05:39:20.233Z,90.69
2023-02-11T05:41:46.737Z,90.71
2023-02-11T05:44:13.493Z,90.49
2023-02-11T05:46:40.088Z,90.78
2023-02-11T05:49:08.375Z,90.49
2023-02-11T05:51:34.909Z,90.73
2023-02-11T05:54:01.464Z,90.96
2023-02-11T05:56:28.547Z,90.53
2023-02-11T05:58:55.110Z,90.54
2023-02-11T06:01:21.713Z,90.41
2023-02-11T06:03:50.419Z,90.34
2023-02-11T06:06:17.566Z,90.88
2023-02-11T06:08:44.114Z,90.97
2023-02-11T06:11:10.623Z,90.66
2023-02-11T06:13:39.715Z,90.61
2023-02-11T06:16:06.413Z,90.72
2023-02-11T06:18:33.745Z,90.98
2023-02-11T06:21:01.181Z,91.03
2023-02-11T06:23:30.248Z,90.76
2023-02-11T06:26:02.246Z,90.79
2023-02-11T06:28:31.260Z,90.92
2023-02-11T06:30:59.844Z,90.58
2023-02-11T06:33:26.360Z,90.61
2023-02-11T06:35:55.932Z,90.49
2023-02-11T06:38:22.654Z,90.96
2023-02-11T06:40:49.832Z,90.75
2023-02-11T06:43:17.181Z,90.86
2023-02-11T06:45:44.200Z,90.78
2023-02-11T06:48:12.942Z,90.70
2023-02-11T06:50:39.531Z,90.66
2023-02-11T06:53:06.093Z,90.91
2023-02-11T06:55:35.327Z,90.89
2023-02-11T06:58:01.841Z,90.50
2023-02-11T07:00:29.862Z,90.56
2023-02-11T07:02:56.594Z,90.64
2023-02-11T07:05:23.200Z,90.49
2023-02-11T07:07:49.798Z,90.61
2023-02-11T07:10:16.410Z,90.79
2023-02-11T07:12:42.929Z,90.28
2023-02-11T07:15:09.668Z,90.26
2023-02-11T07:17:36.718Z,90.29
2023-02-11T07:20:03.883Z,90.51
2023-02-11T07:22:30.737Z,90.69
2023-02-11T07:24:57.202Z,90.86
2023-02-11T07:27:23.780Z,90.84
2023-02-11T07:29:50.738Z,90.49
2023-02-11T07:32:17.353Z,90.47
2023-02-11T07:34:44.419Z,90.55
2023-02-11T07:37:11.023Z,90.28
2023-02-11T07:39:37.787Z,90.30
2023-02-11T07:42:04.733Z,90.07
2023-02-11T08:07:22.002Z,90.09
2023-02-11T08:09:48.572Z,90.20
2023-02-11T08:12:15.104Z,90.20
2023-02-11T08:14:41.760Z,90.21
2023-02-11T08:17:08.388Z,89.88
2023-02-11T08:19:35.315Z,90.01
2023-02-11T08:22:02.857Z,89.78
2023-02-11T08:24:29.362Z,89.54
2023-02-11T08:26:56.106Z,89.40
2023-02-11T08:29:22.792Z,89.83
2023-02-11T08:31:49.844Z,89.59
2023-02-11T08:34:19.235Z,89.85
2023-02-11T08:36:47.358Z,89.81
2023-02-11T08:39:20.055Z,89.81
2023-02-11T08:41:49.189Z,89.82
2023-02-11T08:44:17.892Z,89.58
2023-02-11T08:46:44.467Z,89.58
2023-02-11T08:49:11.135Z,89.43
2023-02-11T08:51:37.821Z,89.46
2023-02-11T08:54:04.565Z,89.56
2023-02-11T08:56:33.182Z,89.45
2023-02-11T08:58:59.792Z,89.89
2023-02-11T09:01:29.191Z,89.16
2023-02-11T09:03:56.969Z,89.38
2023-02-11T09:06:26.533Z,89.19
2023-02-11T09:08:55.703Z,89.03
2023-02-11T09:11:26.919Z,89.13
2023-02-11T09:13:54.597Z,89.19
2023-02-11T09:16:25.506Z,89.06
2023-02-11T09:18:52.719Z,89.17
2023-02-11T09:21:20.114Z,89.08
2023-02-11T09:23:48.053Z,89.66
2023-02-11T09:26:19.361Z,89.28
2023-02-11T09:28:47.074Z,89.08
2023-02-11T09:31:16.780Z,89.23
2023-02-11T09:33:48.188Z,89.89
2023-02-11T09:36:23.664Z,89.42
2023-02-11T09:38:51.007Z,88.87
2023-02-11T09:41:52.711Z,88.83
2023-02-11T09:44:34.105Z,88.97
2023-02-11T09:47:24.247Z,88.82
2023-02-11T09:49:53.925Z,88.19
2023-02-11T09:52:45.834Z,87.73
2023-02-11T09:55:21.289Z,87.81
2023-02-11T09:57:48.074Z,87.66
2023-02-11T10:00:24.052Z,87.19
2023-02-11T10:03:14.490Z,87.71
2023-02-11T10:06:05.481Z,87.05
2023-02-11T10:08:58.642Z,87.25
2023-02-11T10:11:34.460Z,87.44
2023-02-11T10:14:25.859Z,87.47
2023-02-11T10:17:21.186Z,88.09
2023-02-11T10:20:21.036Z,88.06
2023-02-11T10:22:52.692Z,88.14
2023-02-11T10:25:27.047Z,88.15
2023-02-11T10:27:57.577Z,88.02
2023-02-11T10:30:27.460Z,87.91
2023-02-11T10:33:02.988Z,87.92
2023-02-11T10:35:29.676Z,88.18
2023-02-11T10:37:56.387Z,88.20
2023-02-11T10:40:26.126Z,88.21
2023-02-11T10:42:59.671Z,88.29
2023-02-11T10:45:40.149Z,88.48
2023-02-11T10:48:38.045Z,88.08
2023-02-11T10:51:28.393Z,88.35
2023-02-11T10:54:04.312Z,88.34
2023-02-11T10:56:58.470Z,87.85
2023-02-11T10:59:31.450Z,88.22
2023-02-11T11:02:06.120Z,88.30
2023-02-11T11:04:33.774Z,88.21
2023-02-11T11:07:11.042Z,87.74
2023-02-11T11:10:05.861Z,88.06
2023-02-11T11:12:48.929Z,88.59
2023-02-11T11:15:24.906Z,88.31
2023-02-11T11:18:20.813Z,88.15
2023-02-11T11:21:01.019Z,88.13
2023-02-11T11:23:30.484Z,88.37
2023-02-11T11:26:06.532Z,88.25
2023-02-11T11:28:59.098Z,88.28
2023-02-11T11:31:36.814Z,88.07
2023-02-11T11:34:28.110Z,88.29
2023-02-11T11:36:57.476Z,88.50
2023-02-11T11:39:31.380Z,88.05
2023-02-11T11:41:59.449Z,87.92
2023-02-11T11:44:36.764Z,88.28
2023-02-11T11:47:12.487Z,88.09
2023-02-11T11:49:50.264Z,88.20
2023-02-11T11:52:28.072Z,87.98
2023-02-11T11:55:21.562Z,88.35
2023-02-11T11:57:48.936Z,87.84
2023-02-11T12:00:23.052Z,87.92
2023-02-11T12:03:37.467Z,88.12
2023-02-11T12:06:07.174Z,87.86
2023-02-11T12:08:52.487Z,88.01
2023-02-11T12:11:36.663Z,88.20
2023-02-11T12:14:24.562Z,87.95
2023-02-11T12:17:01.678Z,88.34
2023-02-11T12:19:40.343Z,88.26
2023-02-11T12:22:35.854Z,88.16
2023-02-11T12:25:28.859Z,88.24
2023-02-11T12:28:11.061Z,88.21
2023-02-11T12:30:55.808Z,88.21
2023-02-11T12:33:49.665Z,87.97
2023-02-11T12:36:47.452Z,88.31
2023-02-11T12:39:16.936Z,88.10
2023-02-11T12:42:02.842Z,88.26
2023-02-11T12:45:16.030Z,88.49
2023-02-11T12:48:14.156Z,88.43
2023-02-11T12:50:52.947Z,88.43
2023-02-11T12:53:26.826Z,88.29
2023-02-11T12:56:01.069Z,88.03
2023-02-11T12:58:44.053Z,88.17
2023-02-11T13:01:20.372Z,88.08
2023-02-11T13:03:59.058Z,88.30
2023-02-11T13:06:34.731Z,88.01
2023-02-11T13:09:04.697Z,87.89
2023-02-11T13:11:43.184Z,87.99
2023-02-11T13:14:15.663Z,87.79
2023-02-11T13:16:45.738Z,87.66
2023-02-11T13:19:37.306Z,87.81
2023-02-11T13:22:39.300Z,87.70
2023-02-11T13:25:30.795Z,87.88
2023-02-11T13:28:09.678Z,87.59
2023-02-11T13:30:41.039Z,87.47
2023-02-11T13:33:20.002Z,87.74
2023-02-11T13:36:06.823Z,87.84
2023-02-11T13:38:33.700Z,88.22
2023-02-11T13:41:23.129Z,88.10
2023-02-11T13:44:22.304Z,88.06
2023-02-11T13:46:53.967Z,88.04
2023-02-11T13:49:36.969Z,88.12
2023-02-11T13:52:16.447Z,88.39
2023-02-11T13:54:50.123Z,87.72
2023-02-11T13:57:19.425Z,88.17
2023-02-11T13:59:52.266Z,88.14
2023-02-11T14:02:41.754Z,88.05
2023-02-11T14:05:28.527Z,87.59
2023-02-11T14:08:29.071Z,87.95
2023-02-11T14:10:58.596Z,87.59
2023-02-11T14:13:31.892Z,88.07
2023-02-11T14:16:17.212Z,87.76
2023-02-11T14:18:49.162Z,87.39
2023-02-11T14:21:35.626Z,87.67
2023-02-11T14:24:02.133Z,87.67
2023-02-11T14:26:35.793Z,87.58
2023-02-11T14:29:14.380Z,87.22
2023-02-11T14:31:49.286Z,87.19
2023-02-11T14:34:33.472Z,87.42
2023-02-11T14:37:26.970Z,87.39
2023-02-11T14:40:00.481Z,86.75
2023-02-11T14:42:29.548Z,86.76
2023-02-11T14:45:03.294Z,86.46
2023-02-11T14:47:46.837Z,86.47
2023-02-11T14:50:27.534Z,85.81
2023-02-11T14:52:55.294Z,85.93
2023-02-11T14:55:42.079Z,86.00
2023-02-11T14:58:19.117Z,86.03
2023-02-11T15:00:53.183Z,86.10
2023-02-11T15:03:34.156Z,85.89
2023-02-11T15:06:05.407Z,86.27
2023-02-11T15:08:34.608Z,86.24
2023-02-11T15:11:03.740Z,86.42
2023-02-11T15:13:32.762Z,86.53
2023-02-11T15:16:08.030Z,86.72
2023-02-11T15:18:39.279Z,86.83
2023-02-11T15:21:06.485Z,86.78
2023-02-11T15:23:33.381Z,86.67
2023-02-11T15:26:04.653Z,86.65
2023-02-11T15:28:35.464Z,86.96
2023-02-11T15:31:05.522Z,86.79
2023-02-11T15:33:32.929Z,87.17
2023-02-11T15:36:00.737Z,87.16
2023-02-11T15:38:28.058Z,87.19
2023-02-11T15:41:01.136Z,87.32
2023-02-11T15:44:00.323Z,87.43
2023-02-11T15:46:38.248Z,87.58
2023-02-11T15:49:06.583Z,87.42
2023-02-11T15:51:36.072Z,87.60
2023-02-11T15:54:07.002Z,87.62
2023-02-11T15:56:43.434Z,87.71
2023-02-11T15:59:35.339Z,88.13
2023-02-11T16:02:21.963Z,87.99
2023-02-11T16:04:54.315Z,87.94
2023-02-11T16:07:49.930Z,88.44
2023-02-11T16:10:17.702Z,88.36
2023-02-11T16:12:57.959Z,88.01
2023-02-11T16:15:33.343Z,87.89
2023-02-11T16:18:12.982Z,87.91
2023-02-11T16:20:47.859Z,87.86
2023-02-11T16:23:21.867Z,88.48
2023-02-11T16:25:51.614Z,88.14
2023-02-11T16:28:18.167Z,88.26
2023-02-11T16:30:44.907Z,88.27
2023-02-11T16:33:11.786Z,88.34
2023-02-11T16:35:40.824Z,88.17
2023-02-11T16:38:07.343Z,88.55
2023-02-11T16:40:33.902Z,88.15
2023-02-11T16:43:02.421Z,88.39
2023-02-11T16:45:28.931Z,88.62
2023-02-11T16:47:55.534Z,88.29
2023-02-11T16:50:24.210Z,88.13
2023-02-11T16:52:53.957Z,88.81
2023-02-11T16:55:21.943Z,88.49
2023-02-11T16:57:51.553Z,88.69
2023-02-11T17:00:18.477Z,88.48
2023-02-11T17:02:45.065Z,88.56
2023-02-11T17:05:19.109Z,88.85
2023-02-11T17:07:46.183Z,89.10
2023-02-11T17:10:22.624Z,88.74
2023-02-11T17:12:50.000Z,89.02
2023-02-11T17:15:16.816Z,88.73
2023-02-11T17:17:43.582Z,89.08
2023-02-11T17:20:12.724Z,88.89
2023-02-11T17:22:39.250Z,89.11
2023-02-11T17:25:06.688Z,88.88
2023-02-11T17:27:33.419Z,89.25
2023-02-11T17:30:00.370Z,89.02
2023-02-11T17:32:26.995Z,88.97
2023-02-11T17:34:56.302Z,88.93
2023-02-11T17:37:23.357Z,89.00
2023-02-11T17:39:50.943Z,89.19
2023-02-11T17:42:19.288Z,88.98
2023-02-11T17:44:45.883Z,89.06
2023-02-11T17:47:12.861Z,88.79
2023-02-11T17:49:39.957Z,89.46
2023-02-11T17:52:06.591Z,89.07
2023-02-11T17:54:33.200Z,89.53
2023-02-11T17:56:59.696Z,89.28
2023-02-11T17:59:26.587Z,89.54
2023-02-11T18:01:53.132Z,89.13
2023-02-11T18:04:20.315Z,89.34
2023-02-11T18:06:47.451Z,89.07
2023-02-11T18:09:13.956Z,89.04
2023-02-11T18:11:41.221Z,88.99
2023-02-11T18:14:08.541Z,88.95
2023-02-11T18:16:38.736Z,89.43
2023-02-11T18:19:07.726Z,89.29
2023-02-11T18:21:34.425Z,89.29
2023-02-11T18:24:05.967Z,89.52
2023-02-11T18:26:33.202Z,89.48
2023-02-11T18:29:00.554Z,89.76
2023-02-11T18:31:27.695Z,89.61
2023-02-11T18:33:54.431Z,89.77
2023-02-11T18:36:22.361Z,89.69
2023-02-11T18:38:49.136Z,89.79
2023-02-11T18:41:15.947Z,90.02
2023-02-11T18:43:43.116Z,89.55
2023-02-11T18:46:12.631Z,89.48
2023-02-11T18:48:40.487Z,89.63
2023-02-11T18:51:15.117Z,89.58
2023-02-11T18:53:42.871Z,89.78
2023-02-11T18:56:15.366Z,89.69
2023-02-11T18:58:42.155Z,90.15
2023-02-11T19:01:13.400Z,89.83
2023-02-11T19:03:40.139Z,90.19
2023-02-11T19:06:07.422Z,90.16
2023-02-11T19:08:33.974Z,89.67
2023-02-11T19:11:00.518Z,89.74
2023-02-11T19:13:29.642Z,89.92
2023-02-11T19:15:56.203Z,90.09
2023-02-11T19:18:22.779Z,89.99
2023-02-11T19:20:49.432Z,89.98
2023-02-11T19:23:15.922Z,90.20
2023-02-11T19:25:47.291Z,90.15
2023-02-11T19:28:14.415Z,90.27
2023-02-11T19:30:41.590Z,89.88
2023-02-11T19:33:10.197Z,89.74
2023-02-11T19:35:36.951Z,89.63
2023-02-11T19:38:06.339Z,89.76
2023-02-11T19:40:32.948Z,90.03
2023-02-11T19:42:59.503Z,90.12
2023-02-11T19:45:26.961Z,90.10
2023-02-11T19:47:56.822Z,89.96
2023-02-11T19:50:23.750Z,90.23
2023-02-11T19:52:50.291Z,90.24
2023-02-11T19:55:16.797Z,90.19
2023-02-11T19:57:43.391Z,90.04
2023-02-11T20:00:11.225Z,90.18
2023-02-11T20:02:39.122Z,90.32
2023-02-11T20:05:06.264Z,90.11
2023-02-11T20:07:32.812Z,89.85
2023-02-11T20:09:59.989Z,90.31
2023-02-11T20:12:26.512Z,90.15
2023-02-11T20:14:52.995Z,90.46
2023-02-11T20:17:19.519Z,90.11
2023-02-11T20:19:46.061Z,90.14
2023-02-11T20:22:12.559Z,90.29
2023-02-11T20:24:39.218Z,90.14
2023-02-11T20:27:08.423Z,90.25
2023-02-11T20:29:37.729Z,90.24
2023-02-11T20:32:05.501Z,90.22
2023-02-11T20:34:32.797Z,90.19
2023-02-11T20:36:59.782Z,90.36
2023-02-11T20:39:26.906Z,90.13
2023-02-11T20:41:54.587Z,90.21
2023-02-11T20:44:24.326Z,90.36
2023-02-11T20:46:51.676Z,90.13
2023-02-11T20:49:21.674Z,90.46
2023-02-11T20:51:49.169Z,89.95
2023-02-11T20:54:17.958Z,90.18
2023-02-11T20:56:47.796Z,90.09
2023-02-11T20:59:15.246Z,90.09
2023-02-11T21:01:44.090Z,90.22
2023-02-11T21:04:13.918Z,89.99
2023-02-11T21:06:43.751Z,90.38
2023-02-11T21:09:13.821Z,89.92
2023-02-11T21:11:41.028Z,90.03
2023-02-11T21:14:07.880Z,90.46
2023-02-11T21:16:34.466Z,89.92
2023-02-11T21:19:01.407Z,90.06
2023-02-11T21:21:27.941Z,90.15
2023-02-11T21:23:56.173Z,90.18
2023-02-11T21:26:23.187Z,90.40
2023-02-11T21:28:50.137Z,90.20
2023-02-11T21:31:20.725Z,90.38
2023-02-11T21:33:50.494Z,90.51
2023-02-11T21:36:17.952Z,90.67
2023-02-11T21:38:44.994Z,90.43
2023-02-11T21:41:12.226Z,90.45
2023-02-11T21:43:38.893Z,90.46
2023-02-11T21:46:15.558Z,90.36
2023-02-11T21:48:42.823Z,90.53
2023-02-11T21:51:13.287Z,90.48
2023-02-11T21:53:39.794Z,90.12
2023-02-11T21:56:08.741Z,90.35
2023-02-11T21:58:35.970Z,90.51
2023-02-11T22:01:09.625Z,90.00
2023-02-11T22:03:36.200Z,90.27
2023-02-11T22:06:09.571Z,90.27
2023-02-11T22:08:36.224Z,90.47
2023-02-11T22:11:07.680Z,90.52
2023-02-11T22:13:34.819Z,90.22
2023-02-11T22:16:04.055Z,90.14
2023-02-11T22:18:30.688Z,90.31
2023-02-11T22:21:03.245Z,90.59
2023-02-11T22:23:30.009Z,90.16
2023-02-11T22:25:57.567Z,89.97
2023-02-11T22:28:28.193Z,90.12
2023-02-11T22:30:59.144Z,90.19
2023-02-11T22:33:27.068Z,90.01
2023-02-11T22:36:18.702Z,90.24
2023-02-11T22:38:45.407Z,90.15
2023-02-11T22:41:12.545Z,90.07
2023-02-11T22:43:42.906Z,89.85
2023-02-11T22:46:12.426Z,89.96
2023-02-11T22:48:39.040Z,90.29
2023-02-11T22:51:18.090Z,89.67
2023-02-11T22:53:44.809Z,89.90
2023-02-11T22:56:16.244Z,89.82
2023-02-11T22:58:43.204Z,89.66
2023-02-11T23:01:17.341Z,89.73
2023-02-11T23:03:49.451Z,90.14
2023-02-11T23:06:16.543Z,89.99
2023-02-11T23:08:44.140Z,90.11
2023-02-11T23:11:17.570Z,89.92
2023-02-11T23:13:47.218Z,89.80
2023-02-11T23:16:16.730Z,89.84
2023-02-11T23:18:51.541Z,89.81
2023-02-11T23:21:22.356Z,89.75
2023-02-11T23:23:53.405Z,89.58
2023-02-11T23:26:20.024Z,89.51
2023-02-11T23:28:47.381Z,89.85
2023-02-11T23:31:21.189Z,89.58
2023-02-11T23:33:50.856Z,89.44
2023-02-11T23:36:19.472Z,89.18
2023-02-11T23:38:46.753Z,89.29
2023-02-11T23:41:14.083Z,89.59
2023-02-11T23:43:41.376Z,89.06
2023-02-11T23:46:08.887Z,89.09
2023-02-11T23:48:40.639Z,89.45
2023-02-11T23:51:09.726Z,89.19
2023-02-11T23:53:38.055Z,89.08
2023-02-11T23:56:15.697Z,89.38
2023-02-11T23:58:42.404Z,89.28
